Arkansas City, Arkansas
Current Conditions -  °F | °C
As of 4:53 PM on Tuesday 27 Jan 2015 (Local Time) from KGLH Reporting Station
Clear Clear  
Wind Chill: 60°   Ceiling: Unl
Heat Index: 60°   Visibility: 10mi
Dew Point: 39°   Wind: 3mph
Humidity: 46%   Direction: 360°N
Pressure: 30.13"   Gusts: NA
Location:  33.61°N, 91.21°W
Report Text: KGLH 272253Z AUTO 36003KT 10SM CLR 16/04 A3013 RMK AO2 SLP211 T01560039
Loading
Personal Weather Stations






























Interactive Weather Map New forecast layout! Learn more

10-Day Weather Forecast

Advertisements
Track Severe Weather on mobile